createdAt,value
2023-05-19T00:04:07.726Z,3.40
2023-05-19T00:06:38.423Z,3.95
2023-05-19T00:09:09.746Z,3.72
2023-05-19T00:11:39.115Z,4.22
2023-05-19T00:14:07.867Z,3.45
2023-05-19T00:16:37.928Z,3.90
2023-05-19T00:19:06.490Z,3.70
2023-05-19T00:24:02.272Z,3.38
2023-05-19T00:26:29.543Z,3.78
2023-05-19T00:28:56.573Z,3.58
2023-05-19T00:31:24.256Z,3.15
2023-05-19T00:33:52.109Z,3.58
2023-05-19T00:36:19.373Z,3.53
2023-05-19T00:38:46.491Z,3.75
2023-05-19T00:41:15.205Z,3.65
2023-05-19T00:43:42.301Z,3.63
2023-05-19T00:46:11.088Z,3.83
2023-05-19T00:48:39.455Z,3.55
2023-05-19T00:51:07.107Z,3.72
2023-05-19T00:53:35.467Z,3.85
2023-05-19T00:56:03.744Z,4.15
2023-05-19T00:58:33.667Z,3.90
2023-05-19T01:01:05.315Z,4.00
2023-05-19T01:03:35.213Z,3.97
2023-05-19T01:06:07.242Z,4.28
2023-05-19T01:08:37.735Z,4.05
2023-05-19T01:11:06.807Z,4.22
2023-05-19T01:16:07.615Z,4.18
2023-05-19T01:18:46.391Z,4.20
2023-05-19T01:21:44.498Z,4.38
2023-05-19T01:24:33.448Z,3.97
2023-05-19T01:27:31.484Z,4.45
2023-05-19T01:30:25.883Z,4.60
2023-05-19T01:32:57.296Z,4.50
2023-05-19T01:35:26.242Z,4.32
2023-05-19T01:37:56.478Z,4.57
2023-05-19T01:40:25.310Z,4.40
2023-05-19T01:42:56.629Z,4.50
2023-05-19T01:45:26.427Z,4.35
2023-05-19T01:47:56.944Z,4.13
2023-05-19T01:50:23.977Z,4.88
2023-05-19T01:52:52.099Z,4.53
2023-05-19T01:55:19.312Z,4.63
2023-05-19T01:58:00.158Z,5.00
2023-05-19T02:00:37.736Z,4.80
2023-05-19T02:03:17.533Z,4.53
2023-05-19T02:05:52.476Z,4.57
2023-05-19T02:08:27.155Z,4.85
2023-05-19T02:11:00.695Z,4.35
2023-05-19T02:13:36.546Z,4.45
2023-05-19T02:16:06.480Z,4.20
2023-05-19T02:18:35.382Z,4.40
2023-05-19T02:21:02.814Z,4.22
2023-05-19T02:23:31.144Z,4.53
2023-05-19T02:25:58.277Z,4.20
2023-05-19T02:28:28.373Z,3.92
2023-05-19T02:30:55.486Z,4.78
2023-05-19T02:33:26.152Z,4.47
2023-05-19T02:35:53.476Z,4.45
2023-05-19T02:38:21.431Z,4.90
2023-05-19T02:40:48.784Z,4.70
2023-05-19T02:43:16.132Z,5.00
2023-05-19T02:45:43.115Z,4.93
2023-05-19T02:48:10.762Z,4.45
2023-05-19T02:50:39.621Z,4.55
2023-05-19T02:53:06.949Z,5.03
2023-05-19T02:55:33.877Z,4.63
2023-05-19T02:58:01.593Z,4.80
2023-05-19T03:00:28.642Z,4.97
2023-05-19T03:02:55.972Z,5.90
2023-05-19T03:05:23.065Z,4.45
2023-05-19T03:07:51.916Z,4.28
2023-05-19T03:10:18.982Z,4.65
2023-05-19T03:12:47.060Z,4.68
2023-05-19T03:15:15.132Z,5.45
2023-05-19T03:17:42.798Z,4.68
2023-05-19T03:20:11.023Z,4.93
2023-05-19T03:22:38.332Z,5.07
2023-05-19T03:25:07.552Z,4.22
2023-05-19T03:27:34.769Z,4.78
2023-05-19T03:30:02.704Z,4.90
2023-05-19T03:32:32.937Z,5.07
2023-05-19T03:37:27.020Z,4.55
2023-05-19T03:39:54.382Z,4.45
2023-05-19T03:42:23.072Z,4.70
2023-05-19T03:44:50.058Z,4.78
2023-05-19T03:47:17.411Z,4.55
2023-05-19T03:49:44.402Z,4.20
2023-05-19T03:52:13.009Z,4.75
2023-05-19T03:54:42.180Z,4.07
2023-05-19T03:57:10.202Z,3.97
2023-05-19T03:59:38.627Z,4.35
2023-05-19T04:02:06.034Z,4.35
2023-05-19T04:04:33.675Z,4.22
2023-05-19T04:07:01.307Z,4.45
2023-05-19T04:09:28.598Z,4.43
2023-05-19T04:11:55.931Z,3.92
2023-05-19T04:14:23.643Z,4.80
2023-05-19T04:16:53.772Z,4.37
2023-05-19T04:19:20.805Z,4.50
2023-05-19T04:21:47.989Z,4.25
2023-05-19T04:24:15.330Z,4.25
2023-05-19T04:26:46.020Z,4.35
2023-05-19T04:29:13.966Z,4.18
2023-05-19T04:31:42.074Z,4.18
2023-05-19T04:34:10.526Z,4.00
2023-05-19T04:36:38.548Z,3.58
2023-05-19T04:39:09.389Z,3.63
2023-05-19T04:41:40.195Z,3.90
2023-05-19T04:44:09.068Z,3.72
2023-05-19T04:46:36.556Z,4.15
2023-05-19T04:49:03.744Z,3.63
2023-05-19T04:51:32.495Z,3.85
2023-05-19T04:53:59.492Z,3.30
2023-05-19T04:56:27.409Z,3.38
2023-05-19T04:58:54.470Z,3.40
2023-05-19T05:01:26.442Z,3.88
2023-05-19T05:03:59.215Z,3.65
2023-05-19T05:06:28.730Z,3.92
2023-05-19T05:08:57.710Z,3.97
2023-05-19T05:11:25.798Z,4.63
2023-05-19T05:13:53.726Z,4.43
2023-05-19T05:16:21.546Z,3.97
2023-05-19T05:18:49.174Z,4.00
2023-05-19T05:21:17.017Z,3.80
2023-05-19T05:23:44.590Z,3.90
2023-05-19T05:26:19.012Z,3.87
2023-05-19T05:28:46.037Z,3.95
2023-05-19T05:31:13.675Z,4.70
2023-05-19T05:33:41.526Z,3.88
2023-05-19T05:36:09.944Z,3.63
2023-05-19T05:38:37.071Z,4.75
2023-05-19T05:41:04.703Z,4.32
2023-05-19T05:43:34.947Z,5.70
2023-05-19T05:46:03.678Z,4.32
2023-05-19T05:48:31.274Z,3.83
2023-05-19T05:51:00.025Z,3.53
2023-05-19T05:53:30.993Z,3.15
2023-05-19T05:55:58.770Z,3.45
2023-05-19T05:58:25.915Z,3.38
2023-05-19T06:00:57.667Z,3.15
2023-05-19T06:03:25.025Z,3.53
2023-05-19T06:08:34.265Z,3.50
2023-05-19T06:11:01.734Z,3.25
2023-05-19T06:13:28.999Z,3.80
2023-05-19T06:15:58.798Z,3.58
2023-05-19T06:18:27.911Z,3.65
2023-05-19T06:20:55.316Z,4.95
2023-05-19T06:23:22.772Z,5.47
2023-05-19T06:25:50.018Z,5.40
2023-05-19T06:28:17.068Z,4.75
2023-05-19T06:30:44.471Z,4.65
2023-05-19T06:33:13.429Z,5.70
2023-05-19T06:35:41.049Z,5.38
2023-05-19T06:38:08.082Z,5.45
2023-05-19T06:40:37.030Z,5.97
2023-05-19T06:43:04.965Z,6.63
2023-05-19T06:45:32.373Z,6.65
2023-05-19T06:48:00.685Z,6.63
2023-05-19T06:50:29.557Z,6.10
2023-05-19T06:52:57.342Z,4.90
2023-05-19T06:55:25.208Z,5.22
2023-05-19T06:57:52.246Z,4.63
2023-05-19T07:00:31.123Z,5.43
2023-05-19T07:02:58.572Z,4.60
2023-05-19T07:05:26.286Z,5.15
2023-05-19T07:07:55.131Z,4.75
2023-05-19T07:10:22.625Z,4.80
2023-05-19T07:12:49.830Z,4.90
2023-05-19T07:15:17.194Z,4.95
2023-05-19T07:17:44.361Z,5.45
2023-05-19T07:20:12.631Z,4.95
2023-05-19T07:22:40.228Z,5.07
2023-05-19T07:25:09.948Z,5.17
2023-05-19T07:27:37.498Z,5.15
2023-05-19T07:30:05.490Z,4.97
2023-05-19T07:32:32.673Z,4.93
2023-05-19T07:35:00.088Z,5.43
2023-05-19T07:37:27.486Z,6.10
2023-05-19T07:39:54.668Z,7.03
2023-05-19T07:42:23.147Z,6.88
2023-05-19T07:44:50.636Z,6.60
2023-05-19T07:47:19.097Z,7.32
2023-05-19T07:49:48.605Z,7.65
2023-05-19T07:52:18.262Z,6.97
2023-05-19T07:57:12.861Z,7.55
2023-05-19T07:59:41.768Z,6.90
2023-05-19T08:02:08.971Z,7.30
2023-05-19T08:04:36.779Z,7.65
2023-05-19T08:07:04.221Z,6.55
2023-05-19T08:09:31.699Z,6.13
2023-05-19T08:12:01.517Z,5.88
2023-05-19T08:14:28.831Z,6.15
2023-05-19T08:16:57.183Z,5.85
2023-05-19T08:19:24.569Z,5.80
2023-05-19T08:21:51.601Z,6.20
2023-05-19T08:24:19.730Z,5.57
2023-05-19T08:26:46.794Z,5.95
2023-05-19T08:29:14.200Z,5.03
2023-05-19T08:31:41.487Z,5.15
2023-05-19T08:34:10.605Z,5.47
2023-05-19T08:36:37.964Z,6.00
2023-05-19T08:39:06.783Z,4.97
2023-05-19T08:41:34.148Z,4.97
2023-05-19T08:44:01.822Z,4.45
2023-05-19T08:46:29.525Z,4.75
2023-05-19T08:49:02.064Z,4.70
2023-05-19T08:51:39.153Z,4.20
2023-05-19T08:54:14.684Z,4.70
2023-05-19T08:56:43.583Z,4.15
2023-05-19T08:59:12.054Z,4.40
2023-05-19T09:01:39.934Z,4.43
2023-05-19T09:04:07.737Z,4.60
2023-05-19T09:06:36.248Z,4.25
2023-05-19T09:11:31.020Z,4.40
2023-05-19T09:13:58.584Z,4.65
2023-05-19T09:16:27.863Z,4.25
2023-05-19T09:18:58.596Z,4.40
2023-05-19T09:21:32.078Z,4.22
2023-05-19T09:24:05.141Z,3.88
2023-05-19T09:26:37.660Z,3.65
2023-05-19T09:29:11.425Z,3.67
2023-05-19T09:31:38.470Z,5.78
2023-05-19T09:34:12.996Z,3.97
2023-05-19T09:36:41.557Z,5.13
2023-05-19T09:41:44.163Z,3.83
2023-05-19T09:44:21.707Z,4.60
2023-05-19T09:46:49.561Z,4.93
2023-05-19T09:49:21.861Z,4.63
2023-05-19T09:51:54.711Z,4.03
2023-05-19T09:54:24.537Z,4.38
2023-05-19T09:56:56.702Z,4.10
2023-05-19T09:59:25.344Z,3.85
2023-05-19T10:01:55.385Z,4.10
2023-05-19T10:04:23.467Z,3.63
2023-05-19T10:06:54.246Z,3.67
2023-05-19T10:09:25.685Z,3.60
2023-05-19T10:11:53.830Z,4.25
2023-05-19T10:14:24.581Z,3.80
2023-05-19T10:16:52.770Z,4.18
2023-05-19T10:19:22.589Z,3.88
2023-05-19T10:21:50.710Z,4.18
2023-05-19T10:24:18.965Z,3.83
2023-05-19T10:26:51.557Z,4.07
2023-05-19T10:29:23.244Z,4.07
2023-05-19T10:31:53.339Z,4.38
2023-05-19T10:34:43.837Z,4.47
2023-05-19T10:37:17.137Z,4.00
2023-05-19T10:39:45.016Z,3.85
2023-05-19T10:42:16.992Z,4.18
2023-05-19T10:44:58.451Z,5.25
2023-05-19T10:47:26.309Z,3.92
2023-05-19T10:49:54.238Z,4.40
2023-05-19T10:52:22.906Z,3.97
2023-05-19T10:54:51.438Z,3.60
2023-05-19T10:57:20.938Z,4.15
2023-05-19T10:59:49.610Z,5.90
2023-05-19T11:02:41.213Z,4.50
2023-05-19T11:05:09.841Z,3.90
2023-05-19T11:07:37.073Z,4.30
2023-05-19T11:10:07.849Z,4.18
2023-05-19T11:12:45.587Z,5.05
2023-05-19T11:15:14.503Z,4.18
2023-05-19T11:17:46.307Z,4.20
2023-05-19T11:20:22.533Z,4.10
2023-05-19T11:23:04.550Z,6.97
2023-05-19T11:25:46.766Z,4.00
2023-05-19T11:28:25.696Z,4.20
2023-05-19T11:30:54.989Z,3.95
2023-05-19T11:33:27.187Z,4.10
2023-05-19T11:35:57.920Z,4.35
2023-05-19T11:38:26.234Z,4.05
2023-05-19T11:40:53.908Z,3.97
2023-05-19T11:43:24.717Z,4.22
2023-05-19T11:45:51.886Z,4.63
2023-05-19T11:48:21.496Z,4.65
2023-05-19T11:50:48.647Z,4.32
2023-05-19T11:53:19.962Z,4.30
2023-05-19T11:55:48.569Z,4.80
2023-05-19T11:58:16.834Z,4.18
2023-05-19T12:00:47.538Z,4.20
2023-05-19T12:03:15.632Z,4.20
2023-05-19T12:05:46.046Z,3.93
2023-05-19T12:08:14.599Z,4.35
2023-05-19T12:10:42.032Z,4.43
2023-05-19T12:13:10.505Z,4.93
2023-05-19T12:18:07.289Z,4.30
2023-05-19T12:20:38.045Z,4.70
2023-05-19T12:23:05.897Z,4.13
2023-05-19T12:25:33.369Z,4.63
2023-05-19T12:28:05.077Z,4.30
2023-05-19T12:30:33.785Z,6.43
2023-05-19T12:33:03.418Z,5.10
2023-05-19T12:35:36.318Z,4.35
2023-05-19T12:38:04.792Z,4.30
2023-05-19T12:40:33.952Z,4.63
2023-05-19T12:43:01.677Z,4.38
2023-05-19T12:45:29.018Z,4.53
2023-05-19T12:47:56.698Z,4.60
2023-05-19T12:50:30.564Z,4.53
2023-05-19T12:53:00.014Z,4.65
2023-05-19T12:55:27.319Z,3.85
2023-05-19T12:57:57.160Z,4.93
2023-05-19T13:00:32.727Z,7.40
2023-05-19T13:03:02.807Z,5.28
2023-05-19T13:05:31.502Z,5.35
2023-05-19T13:08:05.287Z,5.57
2023-05-19T13:10:34.073Z,7.00
2023-05-19T13:13:02.524Z,5.57
2023-05-19T13:15:34.394Z,5.82
2023-05-19T13:18:06.326Z,5.93
2023-05-19T13:20:34.521Z,5.60
2023-05-19T13:25:31.052Z,6.45
2023-05-19T13:28:01.231Z,6.10
2023-05-19T13:30:28.508Z,5.75
2023-05-19T13:32:55.921Z,5.70
2023-05-19T13:35:23.234Z,5.43
2023-05-19T13:37:50.977Z,6.20
2023-05-19T13:42:48.211Z,5.40
2023-05-19T13:45:15.702Z,5.70
2023-05-19T13:47:43.171Z,4.72
2023-05-19T13:50:11.038Z,4.95
2023-05-19T13:52:38.416Z,4.32
2023-05-19T13:55:07.052Z,4.43
2023-05-19T13:57:35.769Z,4.95
2023-05-19T14:00:04.596Z,4.25
2023-05-19T14:02:33.846Z,4.25
2023-05-19T14:05:01.028Z,3.45
2023-05-19T14:07:28.401Z,3.08
2023-05-19T14:09:55.514Z,3.13
2023-05-19T14:12:27.973Z,2.97
2023-05-19T14:15:03.426Z,3.35
2023-05-19T14:17:31.864Z,3.55
2023-05-19T14:20:00.671Z,3.38
2023-05-19T14:22:28.299Z,3.67
2023-05-19T14:24:55.514Z,4.07
2023-05-19T14:27:22.923Z,3.85
2023-05-19T14:29:50.353Z,3.90
2023-05-19T14:32:19.739Z,3.78
2023-05-19T14:34:47.542Z,4.63
2023-05-19T14:37:14.793Z,4.23
2023-05-19T14:39:41.858Z,3.88
2023-05-19T14:42:09.164Z,4.10
2023-05-19T14:44:37.629Z,4.00
2023-05-19T14:47:07.538Z,3.97
2023-05-19T14:49:38.612Z,4.00
2023-05-19T14:52:07.301Z,3.95
2023-05-19T14:54:34.569Z,3.85
2023-05-19T14:57:03.035Z,3.67
2023-05-19T14:59:30.347Z,3.75
2023-05-19T15:01:57.764Z,3.55
2023-05-19T15:04:25.152Z,3.45
2023-05-19T15:07:05.682Z,3.90
2023-05-19T15:09:37.742Z,3.63
2023-05-19T15:12:05.550Z,4.60
2023-05-19T15:14:32.643Z,3.80
2023-05-19T15:17:00.294Z,3.78
2023-05-19T15:19:27.558Z,3.97
2023-05-19T15:21:56.498Z,4.00
2023-05-19T15:24:25.142Z,4.30
2023-05-19T15:26:52.577Z,4.10
2023-05-19T15:29:19.714Z,3.90
2023-05-19T15:31:50.229Z,4.50
2023-05-19T15:34:18.336Z,4.22
2023-05-19T15:36:45.802Z,4.20
2023-05-19T15:39:14.605Z,4.13
2023-05-19T15:41:41.949Z,4.30
2023-05-19T15:44:09.224Z,4.43
2023-05-19T15:46:36.735Z,4.53
2023-05-19T15:49:04.296Z,4.40
2023-05-19T15:51:32.263Z,4.17
2023-05-19T15:53:59.666Z,4.03
2023-05-19T15:56:28.364Z,4.07
2023-05-19T16:01:22.882Z,3.92
2023-05-19T16:03:50.428Z,4.10
2023-05-19T16:06:17.983Z,4.22
2023-05-19T16:08:45.210Z,4.07
2023-05-19T16:11:12.557Z,4.32
2023-05-19T16:13:41.537Z,3.88
2023-05-19T16:16:09.601Z,3.78
2023-05-19T16:18:36.842Z,4.03
2023-05-19T16:21:04.586Z,4.00
2023-05-19T16:23:31.864Z,3.75
2023-05-19T16:26:00.416Z,4.07
2023-05-19T16:28:28.830Z,3.67
2023-05-19T16:33:27.280Z,4.43
2023-05-19T16:35:54.772Z,4.85
2023-05-19T16:38:21.838Z,5.55
2023-05-19T16:40:49.204Z,5.63
2023-05-19T16:43:16.279Z,5.88
2023-05-19T16:45:43.589Z,5.07
2023-05-19T16:48:12.269Z,5.25
2023-05-19T16:50:39.937Z,6.45
2023-05-19T16:53:07.200Z,5.90
2023-05-19T16:55:34.720Z,5.95
2023-05-19T16:58:01.731Z,6.30
2023-05-19T17:00:29.858Z,6.43
2023-05-19T17:02:57.020Z,6.73
2023-05-19T17:05:27.296Z,6.45
2023-05-19T17:07:54.453Z,6.10
2023-05-19T17:10:22.142Z,6.25
2023-05-19T17:12:49.304Z,6.88
2023-05-19T17:15:16.809Z,6.47
2023-05-19T17:17:43.827Z,6.65
2023-05-19T17:20:13.331Z,6.10
2023-05-19T17:22:41.859Z,6.03
2023-05-19T17:27:36.889Z,6.03
2023-05-19T17:30:04.876Z,6.30
2023-05-19T17:32:35.935Z,6.03
2023-05-19T17:35:05.405Z,6.10
2023-05-19T17:37:33.252Z,6.15
2023-05-19T17:40:02.089Z,8.55
2023-05-19T17:42:31.716Z,6.72
2023-05-19T17:44:59.475Z,6.75
2023-05-19T17:47:26.565Z,6.75
2023-05-19T17:49:54.105Z,6.53
2023-05-19T17:52:21.819Z,7.03
2023-05-19T17:54:50.593Z,7.03
2023-05-19T17:57:20.226Z,6.28
2023-05-19T17:59:48.175Z,6.78
2023-05-19T18:02:15.991Z,6.75
2023-05-19T18:04:43.797Z,7.57
2023-05-19T18:07:12.009Z,6.93
2023-05-19T18:12:43.470Z,6.60
2023-05-19T18:15:11.908Z,7.13
2023-05-19T18:17:38.968Z,7.15
2023-05-19T18:20:07.938Z,6.75
2023-05-19T18:22:34.920Z,6.97
2023-05-19T18:25:02.324Z,7.05
2023-05-19T18:27:29.879Z,7.13
2023-05-19T18:29:58.818Z,7.47
2023-05-19T18:34:53.065Z,6.72
2023-05-19T18:37:21.789Z,6.93
2023-05-19T18:39:49.235Z,7.53
2023-05-19T18:42:16.694Z,7.85
2023-05-19T18:44:47.596Z,10.85
2023-05-19T18:47:16.455Z,7.65
2023-05-19T18:49:43.737Z,7.20
2023-05-19T18:52:11.212Z,7.57
2023-05-19T18:54:38.876Z,6.88
2023-05-19T18:57:06.641Z,7.43
2023-05-19T18:59:34.009Z,7.70
2023-05-19T19:02:01.273Z,7.07
2023-05-19T19:04:31.485Z,6.85
2023-05-19T19:06:58.948Z,6.68
2023-05-19T19:09:26.366Z,7.70
2023-05-19T19:11:53.459Z,6.47
2023-05-19T19:14:24.132Z,6.85
2023-05-19T19:16:51.231Z,6.80
2023-05-19T19:19:18.689Z,7.00
2023-05-19T19:21:47.318Z,7.20
2023-05-19T19:26:41.961Z,7.47
2023-05-19T19:29:09.681Z,8.07
2023-05-19T19:31:36.785Z,9.00
2023-05-19T19:34:09.167Z,9.90
2023-05-19T19:36:36.408Z,8.80
2023-05-19T19:39:05.240Z,9.52
2023-05-19T19:41:33.452Z,15.00
2023-05-19T19:46:27.946Z,8.32
2023-05-19T19:48:57.242Z,8.57
2023-05-19T19:51:24.693Z,8.45
2023-05-19T19:53:51.995Z,8.35
2023-05-19T19:56:22.193Z,8.32
2023-05-19T19:58:49.534Z,8.75
2023-05-19T20:01:16.695Z,8.23
2023-05-19T20:04:19.923Z,8.40
2023-05-19T20:06:47.384Z,8.50
2023-05-19T20:09:14.773Z,8.43
2023-05-19T20:11:43.603Z,8.82
2023-05-19T20:14:11.135Z,8.27
2023-05-19T20:16:40.400Z,9.30
2023-05-19T20:19:09.354Z,9.95
2023-05-19T20:21:36.729Z,9.10
2023-05-19T20:24:04.484Z,8.80
2023-05-19T20:26:31.656Z,9.77
2023-05-19T20:29:00.441Z,7.63
2023-05-19T20:31:27.524Z,8.65
2023-05-19T20:33:54.995Z,7.38
2023-05-19T20:36:22.163Z,7.68
2023-05-19T20:38:49.527Z,8.05
2023-05-19T20:41:16.635Z,7.85
2023-05-19T20:43:44.284Z,8.25
2023-05-19T20:46:12.911Z,8.50
2023-05-19T20:48:40.623Z,7.47
2023-05-19T20:51:07.752Z,7.90
2023-05-19T20:53:36.480Z,8.38
2023-05-19T20:56:05.276Z,8.52
2023-05-19T20:58:32.697Z,8.73
2023-05-19T21:00:59.726Z,9.43
2023-05-19T21:03:28.784Z,9.27
2023-05-19T21:08:23.511Z,8.23
2023-05-19T21:10:51.032Z,8.68
2023-05-19T21:13:18.682Z,8.43
2023-05-19T21:15:46.164Z,9.18
2023-05-19T21:18:13.568Z,8.65
2023-05-19T21:20:42.078Z,9.02
2023-05-19T21:25:36.446Z,8.88
2023-05-19T21:28:03.949Z,8.20
2023-05-19T21:30:31.341Z,8.38
2023-05-19T21:32:58.850Z,7.75
2023-05-19T21:35:26.427Z,7.57
2023-05-19T21:37:55.764Z,8.77
2023-05-19T21:40:22.871Z,7.68
2023-05-19T21:42:50.288Z,8.57
2023-05-19T21:45:17.569Z,9.52
2023-05-19T21:47:45.126Z,8.95
2023-05-19T21:50:15.729Z,8.27
2023-05-19T21:52:43.268Z,8.23
2023-05-19T21:55:11.891Z,7.80
2023-05-19T21:57:39.299Z,8.63
2023-05-19T22:00:08.213Z,8.30
2023-05-19T22:02:35.843Z,7.22
2023-05-19T22:05:03.148Z,8.32
2023-05-19T22:07:30.419Z,6.82
2023-05-19T22:09:57.574Z,6.50
2023-05-19T22:12:26.493Z,7.43
2023-05-19T22:14:53.520Z,6.00
2023-05-19T22:17:21.226Z,6.10
2023-05-19T22:19:48.297Z,6.03
2023-05-19T22:22:15.878Z,5.53
2023-05-19T22:24:43.100Z,5.40
2023-05-19T22:27:10.581Z,5.72
2023-05-19T22:29:39.119Z,5.53
2023-05-19T22:34:35.009Z,5.63
2023-05-19T22:37:02.532Z,5.82
2023-05-19T22:39:29.522Z,6.13
2023-05-19T22:41:56.818Z,5.88
2023-05-19T22:44:23.993Z,6.53
2023-05-19T22:46:52.790Z,6.60
2023-05-19T22:49:20.980Z,6.80
2023-05-19T22:51:48.455Z,6.22
2023-05-19T22:54:15.741Z,5.65
2023-05-19T22:56:46.371Z,5.72
2023-05-19T22:59:13.814Z,5.25
2023-05-19T23:01:41.207Z,5.45
2023-05-19T23:04:11.527Z,6.03
2023-05-19T23:06:38.826Z,7.28
2023-05-19T23:09:05.923Z,7.20
2023-05-19T23:11:33.185Z,7.80
2023-05-19T23:14:00.635Z,8.05
2023-05-19T23:16:28.048Z,7.90
2023-05-19T23:18:55.609Z,8.32
2023-05-19T23:21:24.538Z,8.02
2023-05-19T23:23:51.972Z,9.20
2023-05-19T23:26:19.254Z,8.70
2023-05-19T23:28:46.239Z,8.18
2023-05-19T23:31:13.714Z,8.80
2023-05-19T23:33:46.142Z,7.53
2023-05-19T23:36:13.756Z,7.68
2023-05-19T23:38:42.200Z,6.53
2023-05-19T23:41:09.621Z,6.03
2023-05-19T23:43:37.820Z,6.57
2023-05-19T23:46:05.228Z,6.15
2023-05-19T23:48:33.643Z,5.93
2023-05-19T23:51:01.231Z,5.80
2023-05-19T23:53:28.450Z,6.20
2023-05-19T23:55:58.713Z,6.75
2023-05-19T23:58:26.057Z,5.75
